Aeroporto :
LOGIN :

Iscrizione | Disclaimer

   EN    FR    IT 

 










Sommario :    VFR   VFR Marginale   IFR   IFR Intensivo   IFR Molto Intensivo
Visibilità : 
Base nubi : 
>= 8 km
>= 3000ft
5 / 8 km
1000 / 3000 ft
1500m / 5 km
500 / 1000 ft
800 / 1500m
200 / 500 ft
< 800m
< 200 ft
Simboli :   Temporali  Nebbia  Neve Forte  Precipitazioni Forti  Vento > 20 kt
SIGMETs :   Varie  Temporali  Ghiacco  Turbolenza  Onda orograficha  Ceneri Vulcaniche






- Altitudine del aeroporto : 699 ft
- Codice IATA : PAD


EDLP - Paderborn Lippstadt

ULTIMO METAR :
  • 211550Z 12008KT CAVOK 05/01 Q1007

METARs OBSOLETI :
  • 211520Z 12008KT CAVOK 05/02 Q1007
  • 211450Z 13006KT CAVOK 06/01 Q1007
  • 211420Z 14007KT CAVOK 06/02 Q1007
  • 211350Z 12006KT CAVOK 06/02 Q1008
  • 211320Z 13007KT 100V160 9999 FEW016 06/02 Q1008

TAF TAF EDLP
Valido dal 21 a 12 ore il 22 a 12 ore UTC


211100Z 2112/2212 13006KT 7000 BKN008
BECMG 2112/2115 BKN015
TEMPO 2121/2210 4000 BR
PROB30
TEMPO 2203/2209 2500 BR



MetMap, La meteo Aeronautica in un colpo d'occhio ! - Copyright ORBIFLY Dicembre 2007 - Disclaimer

ORBIFLY MET'MAP TEAM :

Programmazione e sviluppo : Alexandra Zaïnal
Concezione e sviluppo : Baudouin d'Aumeries
Co-Programmazione e sviluppo : Marc-Olivier Méhu
Supporto tecnico e logistico : Manuel Goepfert
Aiuto per la traduzione : Arnaldo La Scala

Contatto : metmap@orbifly.com




FONTI E CREDITI :

   NOAA